sensor_id;sensor_type;location;lat;lon;timestamp;temperature;humidity
65836;SHT30;52595;51.608;7.216;2022-10-22T00:00:25;11.95;99.99
65836;SHT30;52595;51.608;7.216;2022-10-22T00:02:50;11.85;99.99
65836;SHT30;52595;51.608;7.216;2022-10-22T00:05:16;11.82;99.99
65836;SHT30;52595;51.608;7.216;2022-10-22T00:07:41;11.79;99.99
65836;SHT30;52595;51.608;7.216;2022-10-22T00:10:07;11.77;99.99
65836;SHT30;52595;51.608;7.216;2022-10-22T00:12:33;11.82;99.99
65836;SHT30;52595;51.608;7.216;2022-10-22T00:14:58;11.87;99.99
65836;SHT30;52595;51.608;7.216;2022-10-22T00:17:24;11.81;99.99
65836;SHT30;52595;51.608;7.216;2022-10-22T00:19:49;11.78;99.99
65836;SHT30;52595;51.608;7.216;2022-10-22T00:22:15;11.94;99.99
65836;SHT30;52595;51.608;7.216;2022-10-22T00:24:40;11.98;99.99
65836;SHT30;52595;51.608;7.216;2022-10-22T00:27:08;11.94;99.99
65836;SHT30;52595;51.608;7.216;2022-10-22T00:29:34;11.95;99.99
65836;SHT30;52595;51.608;7.216;2022-10-22T00:32:00;11.97;99.99
65836;SHT30;52595;51.608;7.216;2022-10-22T00:34:26;11.92;99.99
65836;SHT30;52595;51.608;7.216;2022-10-22T00:36:51;11.79;99.99
65836;SHT30;52595;51.608;7.216;2022-10-22T00:39:18;11.84;99.99
65836;SHT30;52595;51.608;7.216;2022-10-22T00:41:45;11.82;99.99
65836;SHT30;52595;51.608;7.216;2022-10-22T00:47:15;11.60;99.99
65836;SHT30;52595;51.608;7.216;2022-10-22T00:49:41;11.55;99.99
65836;SHT30;52595;51.608;7.216;2022-10-22T00:52:07;11.54;99.99
65836;SHT30;52595;51.608;7.216;2022-10-22T00:54:33;11.61;99.99
65836;SHT30;52595;51.608;7.216;2022-10-22T00:56:59;11.75;99.99
65836;SHT30;52595;51.608;7.216;2022-10-22T00:59:25;11.64;99.99
65836;SHT30;52595;51.608;7.216;2022-10-22T01:01:50;11.60;99.99
65836;SHT30;52595;51.608;7.216;2022-10-22T01:04:18;11.57;99.99
65836;SHT30;52595;51.608;7.216;2022-10-22T01:06:44;11.44;99.99
65836;SHT30;52595;51.608;7.216;2022-10-22T01:12:14;11.37;99.99
65836;SHT30;52595;51.608;7.216;2022-10-22T01:17:37;11.38;99.99
65836;SHT30;52595;51.608;7.216;2022-10-22T01:22:58;11.37;99.99
65836;SHT30;52595;51.608;7.216;2022-10-22T01:25:30;11.28;99.99
65836;SHT30;52595;51.608;7.216;2022-10-22T01:28:33;11.22;99.99
65836;SHT30;52595;51.608;7.216;2022-10-22T01:31:00;11.23;99.99
65836;SHT30;52595;51.608;7.216;2022-10-22T01:33:28;11.23;99.99
65836;SHT30;52595;51.608;7.216;2022-10-22T01:35:55;11.27;99.99
65836;SHT30;52595;51.608;7.216;2022-10-22T01:38:22;11.51;99.99
65836;SHT30;52595;51.608;7.216;2022-10-22T01:40:50;11.40;99.99
65836;SHT30;52595;51.608;7.216;2022-10-22T01:43:15;11.33;99.99
65836;SHT30;52595;51.608;7.216;2022-10-22T01:45:43;11.28;99.99
65836;SHT30;52595;51.608;7.216;2022-10-22T01:48:44;11.31;99.99
65836;SHT30;52595;51.608;7.216;2022-10-22T01:51:56;11.24;99.99
65836;SHT30;52595;51.608;7.216;2022-10-22T01:54:49;11.28;99.99
65836;SHT30;52595;51.608;7.216;2022-10-22T02:00:13;11.14;99.99
65836;SHT30;52595;51.608;7.216;2022-10-22T02:05:36;11.03;99.99
65836;SHT30;52595;51.608;7.216;2022-10-22T02:08:09;11.04;99.99
65836;SHT30;52595;51.608;7.216;2022-10-22T02:10:37;11.09;99.99
65836;SHT30;52595;51.608;7.216;2022-10-22T02:13:07;11.12;99.99
65836;SHT30;52595;51.608;7.216;2022-10-22T02:15:34;11.10;99.99
65836;SHT30;52595;51.608;7.216;2022-10-22T02:18:02;11.14;99.99
65836;SHT30;52595;51.608;7.216;2022-10-22T02:20:30;11.24;99.99
65836;SHT30;52595;51.608;7.216;2022-10-22T02:22:58;11.23;99.99
65836;SHT30;52595;51.608;7.216;2022-10-22T02:25:27;11.26;99.99
65836;SHT30;52595;51.608;7.216;2022-10-22T02:30:34;11.09;99.99
65836;SHT30;52595;51.608;7.216;2022-10-22T02:33:25;11.16;99.99
65836;SHT30;52595;51.608;7.216;2022-10-22T02:35:51;11.19;99.99
65836;SHT30;52595;51.608;7.216;2022-10-22T02:38:17;11.28;99.99
65836;SHT30;52595;51.608;7.216;2022-10-22T02:40:43;11.33;99.99
65836;SHT30;52595;51.608;7.216;2022-10-22T02:43:09;11.33;99.99
65836;SHT30;52595;51.608;7.216;2022-10-22T02:45:34;11.23;99.99
65836;SHT30;52595;51.608;7.216;2022-10-22T02:48:00;11.28;99.99
65836;SHT30;52595;51.608;7.216;2022-10-22T02:50:26;11.23;99.99
65836;SHT30;52595;51.608;7.216;2022-10-22T02:52:51;11.10;99.99
65836;SHT30;52595;51.608;7.216;2022-10-22T02:55:17;10.95;99.99
65836;SHT30;52595;51.608;7.216;2022-10-22T02:57:42;10.93;99.99
65836;SHT30;52595;51.608;7.216;2022-10-22T03:00:09;10.95;99.99
65836;SHT30;52595;51.608;7.216;2022-10-22T03:02:35;11.00;99.99
65836;SHT30;52595;51.608;7.216;2022-10-22T03:05:00;11.13;99.99
65836;SHT30;52595;51.608;7.216;2022-10-22T03:07:26;11.14;99.99
65836;SHT30;52595;51.608;7.216;2022-10-22T03:09:51;11.24;99.99
65836;SHT30;52595;51.608;7.216;2022-10-22T03:12:17;11.22;99.99
65836;SHT30;52595;51.608;7.216;2022-10-22T03:14:42;11.12;99.99
65836;SHT30;52595;51.608;7.216;2022-10-22T03:17:08;11.09;99.99
65836;SHT30;52595;51.608;7.216;2022-10-22T03:19:33;11.12;99.99
65836;SHT30;52595;51.608;7.216;2022-10-22T03:22:04;11.07;99.99
65836;SHT30;52595;51.608;7.216;2022-10-22T03:24:43;11.06;99.99
65836;SHT30;52595;51.608;7.216;2022-10-22T03:27:10;11.02;99.99
65836;SHT30;52595;51.608;7.216;2022-10-22T03:29:37;10.96;99.99
65836;SHT30;52595;51.608;7.216;2022-10-22T03:32:04;10.86;99.99
65836;SHT30;52595;51.608;7.216;2022-10-22T03:34:30;10.86;99.99
65836;SHT30;52595;51.608;7.216;2022-10-22T03:36:56;10.79;99.99
65836;SHT30;52595;51.608;7.216;2022-10-22T03:39:23;10.77;99.99
65836;SHT30;52595;51.608;7.216;2022-10-22T03:41:50;10.77;99.99
65836;SHT30;52595;51.608;7.216;2022-10-22T03:44:16;10.82;99.99
65836;SHT30;52595;51.608;7.216;2022-10-22T03:46:42;10.77;99.99
65836;SHT30;52595;51.608;7.216;2022-10-22T03:49:07;10.76;99.99
65836;SHT30;52595;51.608;7.216;2022-10-22T03:51:33;10.69;99.99
65836;SHT30;52595;51.608;7.216;2022-10-22T03:54:00;10.69;99.99
65836;SHT30;52595;51.608;7.216;2022-10-22T03:56:25;10.82;99.99
65836;SHT30;52595;51.608;7.216;2022-10-22T03:58:50;11.14;99.99
65836;SHT30;52595;51.608;7.216;2022-10-22T04:01:16;11.07;99.99
65836;SHT30;52595;51.608;7.216;2022-10-22T04:03:41;10.93;99.99
65836;SHT30;52595;51.608;7.216;2022-10-22T04:06:09;10.75;99.99
65836;SHT30;52595;51.608;7.216;2022-10-22T04:08:35;10.71;99.99
65836;SHT30;52595;51.608;7.216;2022-10-22T04:11:01;10.65;99.99
65836;SHT30;52595;51.608;7.216;2022-10-22T04:13:26;10.79;99.99
65836;SHT30;52595;51.608;7.216;2022-10-22T04:15:52;10.84;99.99
65836;SHT30;52595;51.608;7.216;2022-10-22T04:18:18;10.97;99.99
65836;SHT30;52595;51.608;7.216;2022-10-22T04:20:44;11.10;99.99
65836;SHT30;52595;51.608;7.216;2022-10-22T04:23:10;11.30;99.99
65836;SHT30;52595;51.608;7.216;2022-10-22T04:25:35;11.28;99.99
65836;SHT30;52595;51.608;7.216;2022-10-22T04:28:01;11.28;99.99
65836;SHT30;52595;51.608;7.216;2022-10-22T04:30:26;11.40;99.99
65836;SHT30;52595;51.608;7.216;2022-10-22T04:32:52;11.26;99.99
65836;SHT30;52595;51.608;7.216;2022-10-22T04:35:17;11.17;99.99
65836;SHT30;52595;51.608;7.216;2022-10-22T04:37:43;11.16;99.99
65836;SHT30;52595;51.608;7.216;2022-10-22T04:40:08;11.16;99.99
65836;SHT30;52595;51.608;7.216;2022-10-22T04:42:34;11.19;99.99
65836;SHT30;52595;51.608;7.216;2022-10-22T04:44:59;11.24;99.99
65836;SHT30;52595;51.608;7.216;2022-10-22T04:47:25;11.34;99.99
65836;SHT30;52595;51.608;7.216;2022-10-22T04:49:50;11.19;99.99
65836;SHT30;52595;51.608;7.216;2022-10-22T04:52:16;11.33;99.99
65836;SHT30;52595;51.608;7.216;2022-10-22T04:54:41;11.30;99.99
65836;SHT30;52595;51.608;7.216;2022-10-22T04:57:06;11.23;99.99
65836;SHT30;52595;51.608;7.216;2022-10-22T04:59:32;11.23;99.99
65836;SHT30;52595;51.608;7.216;2022-10-22T05:01:57;11.28;99.99
65836;SHT30;52595;51.608;7.216;2022-10-22T05:04:22;11.38;99.99
65836;SHT30;52595;51.608;7.216;2022-10-22T05:06:48;11.36;99.99
65836;SHT30;52595;51.608;7.216;2022-10-22T05:09:16;11.31;99.99
65836;SHT30;52595;51.608;7.216;2022-10-22T05:11:43;11.22;99.99
65836;SHT30;52595;51.608;7.216;2022-10-22T05:14:11;11.26;99.99
65836;SHT30;52595;51.608;7.216;2022-10-22T05:16:36;11.19;99.99
65836;SHT30;52595;51.608;7.216;2022-10-22T05:19:03;11.10;99.99
65836;SHT30;52595;51.608;7.216;2022-10-22T05:21:28;11.03;99.99
65836;SHT30;52595;51.608;7.216;2022-10-22T05:23:54;11.14;99.99
65836;SHT30;52595;51.608;7.216;2022-10-22T05:26:21;11.16;99.99
65836;SHT30;52595;51.608;7.216;2022-10-22T05:28:48;11.12;99.99
65836;SHT30;52595;51.608;7.216;2022-10-22T05:31:14;11.22;99.99
65836;SHT30;52595;51.608;7.216;2022-10-22T05:33:41;11.16;99.99
65836;SHT30;52595;51.608;7.216;2022-10-22T05:36:07;11.09;99.99
65836;SHT30;52595;51.608;7.216;2022-10-22T05:38:35;11.02;99.99
65836;SHT30;52595;51.608;7.216;2022-10-22T05:41:05;11.06;99.99
65836;SHT30;52595;51.608;7.216;2022-10-22T05:43:30;11.26;99.99
65836;SHT30;52595;51.608;7.216;2022-10-22T05:46:00;11.12;99.99
65836;SHT30;52595;51.608;7.216;2022-10-22T05:48:26;11.07;99.99
65836;SHT30;52595;51.608;7.216;2022-10-22T05:50:52;11.02;99.99
65836;SHT30;52595;51.608;7.216;2022-10-22T05:53:17;10.95;99.99
65836;SHT30;52595;51.608;7.216;2022-10-22T05:55:43;11.09;99.99
65836;SHT30;52595;51.608;7.216;2022-10-22T05:58:13;10.92;99.99
65836;SHT30;52595;51.608;7.216;2022-10-22T06:00:38;10.99;99.99
65836;SHT30;52595;51.608;7.216;2022-10-22T06:03:04;11.17;99.99
65836;SHT30;52595;51.608;7.216;2022-10-22T06:05:29;11.33;99.99
65836;SHT30;52595;51.608;7.216;2022-10-22T06:07:56;11.36;99.99
65836;SHT30;52595;51.608;7.216;2022-10-22T06:10:22;11.22;99.99
65836;SHT30;52595;51.608;7.216;2022-10-22T06:12:48;11.14;99.99
65836;SHT30;52595;51.608;7.216;2022-10-22T06:15:15;11.27;99.99
65836;SHT30;52595;51.608;7.216;2022-10-22T06:17:43;11.45;99.99
65836;SHT30;52595;51.608;7.216;2022-10-22T06:20:09;11.58;99.99
65836;SHT30;52595;51.608;7.216;2022-10-22T06:22:35;11.70;99.99
65836;SHT30;52595;51.608;7.216;2022-10-22T06:25:00;11.57;99.99
65836;SHT30;52595;51.608;7.216;2022-10-22T06:27:26;11.45;99.99
65836;SHT30;52595;51.608;7.216;2022-10-22T06:29:51;11.34;99.99
65836;SHT30;52595;51.608;7.216;2022-10-22T06:32:16;11.41;99.99
65836;SHT30;52595;51.608;7.216;2022-10-22T06:34:42;11.43;99.99
65836;SHT30;52595;51.608;7.216;2022-10-22T06:37:08;11.47;99.99
65836;SHT30;52595;51.608;7.216;2022-10-22T06:39:34;11.57;99.99
65836;SHT30;52595;51.608;7.216;2022-10-22T06:42:00;11.65;99.99
65836;SHT30;52595;51.608;7.216;2022-10-22T06:44:25;11.53;99.99
65836;SHT30;52595;51.608;7.216;2022-10-22T06:46:51;11.48;99.99
65836;SHT30;52595;51.608;7.216;2022-10-22T06:49:18;11.44;99.99
65836;SHT30;52595;51.608;7.216;2022-10-22T06:51:44;11.68;99.99
65836;SHT30;52595;51.608;7.216;2022-10-22T06:54:10;11.89;99.99
65836;SHT30;52595;51.608;7.216;2022-10-22T06:56:36;12.02;99.99
65836;SHT30;52595;51.608;7.216;2022-10-22T06:59:02;12.15;99.99
65836;SHT30;52595;51.608;7.216;2022-10-22T07:01:30;12.25;99.99
65836;SHT30;52595;51.608;7.216;2022-10-22T07:03:55;12.38;99.99
65836;SHT30;52595;51.608;7.216;2022-10-22T07:06:22;12.48;99.99
65836;SHT30;52595;51.608;7.216;2022-10-22T07:08:48;12.59;99.99
65836;SHT30;52595;51.608;7.216;2022-10-22T07:11:15;12.63;99.99
65836;SHT30;52595;51.608;7.216;2022-10-22T07:13:41;12.62;99.99
65836;SHT30;52595;51.608;7.216;2022-10-22T07:16:07;12.72;99.99
65836;SHT30;52595;51.608;7.216;2022-10-22T07:18:34;12.80;99.99
65836;SHT30;52595;51.608;7.216;2022-10-22T07:20:59;12.94;99.99
65836;SHT30;52595;51.608;7.216;2022-10-22T07:23:25;12.96;99.99
65836;SHT30;52595;51.608;7.216;2022-10-22T07:25:51;13.04;99.99
65836;SHT30;52595;51.608;7.216;2022-10-22T07:28:16;13.03;99.99
65836;SHT30;52595;51.608;7.216;2022-10-22T07:30:42;13.07;99.99
65836;SHT30;52595;51.608;7.216;2022-10-22T07:33:08;13.20;99.99
65836;SHT30;52595;51.608;7.216;2022-10-22T07:35:36;13.33;99.99
65836;SHT30;52595;51.608;7.216;2022-10-22T07:38:02;13.47;99.99
65836;SHT30;52595;51.608;7.216;2022-10-22T07:40:27;13.53;99.99
65836;SHT30;52595;51.608;7.216;2022-10-22T07:42:52;13.64;99.99
65836;SHT30;52595;51.608;7.216;2022-10-22T07:45:18;13.72;99.99
65836;SHT30;52595;51.608;7.216;2022-10-22T07:47:43;13.83;99.99
65836;SHT30;52595;51.608;7.216;2022-10-22T07:50:09;13.95;99.99
65836;SHT30;52595;51.608;7.216;2022-10-22T07:52:34;14.05;99.99
65836;SHT30;52595;51.608;7.216;2022-10-22T07:55:00;14.23;99.99
65836;SHT30;52595;51.608;7.216;2022-10-22T07:57:25;14.36;99.99
65836;SHT30;52595;51.608;7.216;2022-10-22T07:59:50;14.53;98.77
65836;SHT30;52595;51.608;7.216;2022-10-22T08:02:16;14.73;98.59
65836;SHT30;52595;51.608;7.216;2022-10-22T08:04:41;14.80;97.29
65836;SHT30;52595;51.608;7.216;2022-10-22T08:07:07;14.98;96.45
65836;SHT30;52595;51.608;7.216;2022-10-22T08:09:33;15.04;95.90
65836;SHT30;52595;51.608;7.216;2022-10-22T08:11:58;15.08;95.42
65836;SHT30;52595;51.608;7.216;2022-10-22T08:14:24;15.17;95.30
65836;SHT30;52595;51.608;7.216;2022-10-22T08:16:49;15.37;94.53
65836;SHT30;52595;51.608;7.216;2022-10-22T08:19:14;15.55;93.04
65836;SHT30;52595;51.608;7.216;2022-10-22T08:21:45;15.78;91.41
65836;SHT30;52595;51.608;7.216;2022-10-22T08:24:11;15.99;90.99
65836;SHT30;52595;51.608;7.216;2022-10-22T08:26:37;16.24;90.48
65836;SHT30;52595;51.608;7.216;2022-10-22T08:29:02;16.36;90.39
65836;SHT30;52595;51.608;7.216;2022-10-22T08:31:28;16.32;88.80
65836;SHT30;52595;51.608;7.216;2022-10-22T08:33:53;16.24;89.75
65836;SHT30;52595;51.608;7.216;2022-10-22T08:36:19;16.22;89.17
65836;SHT30;52595;51.608;7.216;2022-10-22T08:38:44;16.24;88.57
65836;SHT30;52595;51.608;7.216;2022-10-22T08:41:16;16.22;88.23
65836;SHT30;52595;51.608;7.216;2022-10-22T08:46:21;16.19;87.84
65836;SHT30;52595;51.608;7.216;2022-10-22T08:48:56;16.20;87.29
65836;SHT30;52595;51.608;7.216;2022-10-22T08:51:25;16.17;87.24
65836;SHT30;52595;51.608;7.216;2022-10-22T08:54:17;16.16;87.30
65836;SHT30;52595;51.608;7.216;2022-10-22T08:56:48;16.16;87.32
65836;SHT30;52595;51.608;7.216;2022-10-22T08:59:26;16.19;86.75
65836;SHT30;52595;51.608;7.216;2022-10-22T09:01:56;16.23;86.59
65836;SHT30;52595;51.608;7.216;2022-10-22T09:04:29;16.22;86.60
65836;SHT30;52595;51.608;7.216;2022-10-22T09:06:58;16.23;85.97
65836;SHT30;52595;51.608;7.216;2022-10-22T09:09:29;16.23;86.08
65836;SHT30;52595;51.608;7.216;2022-10-22T09:11:57;16.23;85.68
65836;SHT30;52595;51.608;7.216;2022-10-22T09:14:24;16.33;85.49
65836;SHT30;52595;51.608;7.216;2022-10-22T09:17:13;16.33;84.51
65836;SHT30;52595;51.608;7.216;2022-10-22T09:20:08;16.42;84.94
65836;SHT30;52595;51.608;7.216;2022-10-22T09:22:47;16.46;84.91
65836;SHT30;52595;51.608;7.216;2022-10-22T09:25:22;16.39;83.82
65836;SHT30;52595;51.608;7.216;2022-10-22T09:27:49;16.40;84.41
65836;SHT30;52595;51.608;7.216;2022-10-22T09:30:20;16.54;84.45
65836;SHT30;52595;51.608;7.216;2022-10-22T09:32:51;16.64;84.23
65836;SHT30;52595;51.608;7.216;2022-10-22T09:35:22;16.68;84.30
65836;SHT30;52595;51.608;7.216;2022-10-22T09:37:50;16.73;83.81
65836;SHT30;52595;51.608;7.216;2022-10-22T09:40:17;16.80;83.63
65836;SHT30;52595;51.608;7.216;2022-10-22T09:42:44;16.80;82.97
65836;SHT30;52595;51.608;7.216;2022-10-22T09:45:16;16.71;82.90
65836;SHT30;52595;51.608;7.216;2022-10-22T09:47:42;16.70;83.30
65836;SHT30;52595;51.608;7.216;2022-10-22T09:52:43;16.83;83.13
65836;SHT30;52595;51.608;7.216;2022-10-22T09:55:17;16.89;82.52
65836;SHT30;52595;51.608;7.216;2022-10-22T09:57:42;16.87;82.24
65836;SHT30;52595;51.608;7.216;2022-10-22T10:00:10;16.88;82.22
65836;SHT30;52595;51.608;7.216;2022-10-22T10:02:39;16.84;82.13
65836;SHT30;52595;51.608;7.216;2022-10-22T10:05:07;16.75;82.12
65836;SHT30;52595;51.608;7.216;2022-10-22T10:07:34;16.70;81.94
65836;SHT30;52595;51.608;7.216;2022-10-22T10:10:00;16.65;82.01
65836;SHT30;52595;51.608;7.216;2022-10-22T10:12:53;16.67;81.74
65836;SHT30;52595;51.608;7.216;2022-10-22T10:15:28;16.85;81.52
65836;SHT30;52595;51.608;7.216;2022-10-22T10:20:39;16.87;81.48
65836;SHT30;52595;51.608;7.216;2022-10-22T10:31:51;16.98;80.09
65836;SHT30;52595;51.608;7.216;2022-10-22T10:37:28;16.94;79.88
65836;SHT30;52595;51.608;7.216;2022-10-22T10:42:39;17.19;79.85
65836;SHT30;52595;51.608;7.216;2022-10-22T10:45:08;17.29;79.63
65836;SHT30;52595;51.608;7.216;2022-10-22T10:55:37;17.49;78.15
65836;SHT30;52595;51.608;7.216;2022-10-22T10:58:17;17.86;77.00
65836;SHT30;52595;51.608;7.216;2022-10-22T11:01:26;17.89;77.10
65836;SHT30;52595;51.608;7.216;2022-10-22T11:04:23;17.53;77.55
65836;SHT30;52595;51.608;7.216;2022-10-22T11:06:56;17.40;78.14
65836;SHT30;52595;51.608;7.216;2022-10-22T11:09:29;17.48;77.80
65836;SHT30;52595;51.608;7.216;2022-10-22T11:12:00;17.42;78.04
65836;SHT30;52595;51.608;7.216;2022-10-22T11:14:32;17.55;78.42
65836;SHT30;52595;51.608;7.216;2022-10-22T11:17:13;17.63;78.34
65836;SHT30;52595;51.608;7.216;2022-10-22T11:20:03;17.76;77.87
65836;SHT30;52595;51.608;7.216;2022-10-22T11:22:44;17.66;77.81
65836;SHT30;52595;51.608;7.216;2022-10-22T11:27:50;17.55;78.33
65836;SHT30;52595;51.608;7.216;2022-10-22T11:30:23;17.42;78.11
65836;SHT30;52595;51.608;7.216;2022-10-22T11:32:55;17.31;78.52
65836;SHT30;52595;51.608;7.216;2022-10-22T11:35:25;17.32;78.10
65836;SHT30;52595;51.608;7.216;2022-10-22T11:37:51;17.66;77.81
65836;SHT30;52595;51.608;7.216;2022-10-22T11:43:07;17.92;76.74
65836;SHT30;52595;51.608;7.216;2022-10-22T11:45:35;17.58;77.50
65836;SHT30;52595;51.608;7.216;2022-10-22T11:50:51;17.66;77.39
65836;SHT30;52595;51.608;7.216;2022-10-22T11:53:27;17.61;77.62
65836;SHT30;52595;51.608;7.216;2022-10-22T11:55:56;17.43;77.66
65836;SHT30;52595;51.608;7.216;2022-10-22T12:06:24;17.12;78.82
65836;SHT30;52595;51.608;7.216;2022-10-22T12:11:19;17.05;79.20
65836;SHT30;52595;51.608;7.216;2022-10-22T12:16:17;16.98;79.54
65836;SHT30;52595;51.608;7.216;2022-10-22T12:18:44;16.98;79.93
65836;SHT30;52595;51.608;7.216;2022-10-22T12:21:13;16.92;79.32
65836;SHT30;52595;51.608;7.216;2022-10-22T12:23:40;16.95;78.95
65836;SHT30;52595;51.608;7.216;2022-10-22T12:26:24;16.98;78.74
65836;SHT30;52595;51.608;7.216;2022-10-22T12:28:49;16.94;79.13
65836;SHT30;52595;51.608;7.216;2022-10-22T12:31:15;16.94;78.66
65836;SHT30;52595;51.608;7.216;2022-10-22T12:33:41;16.98;78.99
65836;SHT30;52595;51.608;7.216;2022-10-22T12:36:14;16.95;78.79
65836;SHT30;52595;51.608;7.216;2022-10-22T12:38:39;17.05;78.52
65836;SHT30;52595;51.608;7.216;2022-10-22T12:41:11;17.14;78.31
65836;SHT30;52595;51.608;7.216;2022-10-22T12:43:37;17.25;77.98
65836;SHT30;52595;51.608;7.216;2022-10-22T12:46:03;17.31;77.86
65836;SHT30;52595;51.608;7.216;2022-10-22T12:48:31;17.40;77.41
65836;SHT30;52595;51.608;7.216;2022-10-22T12:51:01;17.58;76.81
65836;SHT30;52595;51.608;7.216;2022-10-22T12:53:33;17.87;76.13
65836;SHT30;52595;51.608;7.216;2022-10-22T12:56:14;17.52;76.90
65836;SHT30;52595;51.608;7.216;2022-10-22T12:58:47;17.61;76.97
65836;SHT30;52595;51.608;7.216;2022-10-22T13:01:15;17.70;76.49
65836;SHT30;52595;51.608;7.216;2022-10-22T13:03:49;17.87;76.80
65836;SHT30;52595;51.608;7.216;2022-10-22T13:09:22;17.66;76.59
65836;SHT30;52595;51.608;7.216;2022-10-22T13:11:50;17.97;76.51
65836;SHT30;52595;51.608;7.216;2022-10-22T13:14:28;18.00;75.66
65836;SHT30;52595;51.608;7.216;2022-10-22T13:17:10;18.02;75.52
65836;SHT30;52595;51.608;7.216;2022-10-22T13:22:33;18.00;75.64
65836;SHT30;52595;51.608;7.216;2022-10-22T13:25:21;17.90;75.80
65836;SHT30;52595;51.608;7.216;2022-10-22T13:30:26;17.85;76.33
65836;SHT30;52595;51.608;7.216;2022-10-22T13:32:54;17.68;76.12
65836;SHT30;52595;51.608;7.216;2022-10-22T13:35:23;17.72;76.34
65836;SHT30;52595;51.608;7.216;2022-10-22T13:37:49;17.50;76.08
65836;SHT30;52595;51.608;7.216;2022-10-22T13:40:15;17.36;76.64
65836;SHT30;52595;51.608;7.216;2022-10-22T13:42:40;17.34;76.97
65836;SHT30;52595;51.608;7.216;2022-10-22T13:45:06;17.31;76.86
65836;SHT30;52595;51.608;7.216;2022-10-22T13:47:32;17.28;76.77
65836;SHT30;52595;51.608;7.216;2022-10-22T13:50:00;17.27;76.79
65836;SHT30;52595;51.608;7.216;2022-10-22T13:52:39;17.22;77.45
65836;SHT30;52595;51.608;7.216;2022-10-22T13:55:18;17.24;77.39
65836;SHT30;52595;51.608;7.216;2022-10-22T13:57:44;17.31;77.02
65836;SHT30;52595;51.608;7.216;2022-10-22T14:00:12;17.39;77.27
65836;SHT30;52595;51.608;7.216;2022-10-22T14:02:39;17.52;76.68
65836;SHT30;52595;51.608;7.216;2022-10-22T14:05:05;17.49;76.75
65836;SHT30;52595;51.608;7.216;2022-10-22T14:07:34;17.48;76.68
65836;SHT30;52595;51.608;7.216;2022-10-22T14:10:00;17.49;76.73
65836;SHT30;52595;51.608;7.216;2022-10-22T14:12:25;17.38;77.37
65836;SHT30;52595;51.608;7.216;2022-10-22T14:14:52;17.38;77.31
65836;SHT30;52595;51.608;7.216;2022-10-22T14:17:18;17.36;77.19
65836;SHT30;52595;51.608;7.216;2022-10-22T14:19:46;17.42;77.36
65836;SHT30;52595;51.608;7.216;2022-10-22T14:22:18;17.56;76.43
65836;SHT30;52595;51.608;7.216;2022-10-22T14:24:45;17.69;76.09
65836;SHT30;52595;51.608;7.216;2022-10-22T14:27:13;17.72;76.02
65836;SHT30;52595;51.608;7.216;2022-10-22T14:29:39;17.66;76.13
65836;SHT30;52595;51.608;7.216;2022-10-22T14:32:16;17.59;75.58
65836;SHT30;52595;51.608;7.216;2022-10-22T14:34:46;17.86;75.54
65836;SHT30;52595;51.608;7.216;2022-10-22T14:37:19;18.37;73.64
65836;SHT30;52595;51.608;7.216;2022-10-22T14:39:46;18.47;73.47
65836;SHT30;52595;51.608;7.216;2022-10-22T14:42:16;18.36;73.28
65836;SHT30;52595;51.608;7.216;2022-10-22T14:44:42;18.13;73.96
65836;SHT30;52595;51.608;7.216;2022-10-22T14:47:07;18.31;73.78
65836;SHT30;52595;51.608;7.216;2022-10-22T14:49:32;18.63;72.31
65836;SHT30;52595;51.608;7.216;2022-10-22T14:51:58;18.54;72.84
65836;SHT30;52595;51.608;7.216;2022-10-22T14:54:23;18.00;73.94
65836;SHT30;52595;51.608;7.216;2022-10-22T14:56:49;18.14;73.85
65836;SHT30;52595;51.608;7.216;2022-10-22T14:59:14;19.46;69.91
65836;SHT30;52595;51.608;7.216;2022-10-22T15:01:39;19.49;69.11
65836;SHT30;52595;51.608;7.216;2022-10-22T15:04:07;18.60;71.54
65836;SHT30;52595;51.608;7.216;2022-10-22T15:06:32;17.94;73.84
65836;SHT30;52595;51.608;7.216;2022-10-22T15:08:58;17.89;74.72
65836;SHT30;52595;51.608;7.216;2022-10-22T15:11:23;17.59;75.11
65836;SHT30;52595;51.608;7.216;2022-10-22T15:13:48;17.48;75.90
65836;SHT30;52595;51.608;7.216;2022-10-22T15:16:15;17.36;75.90
65836;SHT30;52595;51.608;7.216;2022-10-22T15:18:40;17.28;76.47
65836;SHT30;52595;51.608;7.216;2022-10-22T15:21:11;17.46;76.03
65836;SHT30;52595;51.608;7.216;2022-10-22T15:23:38;17.59;75.50
65836;SHT30;52595;51.608;7.216;2022-10-22T15:26:08;17.38;75.81
65836;SHT30;52595;51.608;7.216;2022-10-22T15:28:35;17.12;77.03
65836;SHT30;52595;51.608;7.216;2022-10-22T15:31:01;16.97;77.13
65836;SHT30;52595;51.608;7.216;2022-10-22T15:33:27;16.89;77.53
65836;SHT30;52595;51.608;7.216;2022-10-22T15:35:53;16.89;77.90
65836;SHT30;52595;51.608;7.216;2022-10-22T15:38:18;17.27;77.20
65836;SHT30;52595;51.608;7.216;2022-10-22T15:40:44;17.69;75.54
65836;SHT30;52595;51.608;7.216;2022-10-22T15:43:10;17.89;75.25
65836;SHT30;52595;51.608;7.216;2022-10-22T15:45:35;17.93;75.16
65836;SHT30;52595;51.608;7.216;2022-10-22T15:48:00;17.70;74.90
65836;SHT30;52595;51.608;7.216;2022-10-22T15:50:26;17.46;76.08
65836;SHT30;52595;51.608;7.216;2022-10-22T15:52:51;17.28;76.49
65836;SHT30;52595;51.608;7.216;2022-10-22T15:55:18;17.10;77.13
65836;SHT30;52595;51.608;7.216;2022-10-22T15:57:43;16.87;78.01
65836;SHT30;52595;51.608;7.216;2022-10-22T16:00:09;16.64;78.77
65836;SHT30;52595;51.608;7.216;2022-10-22T16:02:35;16.42;79.47
65836;SHT30;52595;51.608;7.216;2022-10-22T16:05:00;16.29;79.78
65836;SHT30;52595;51.608;7.216;2022-10-22T16:07:25;16.12;80.46
65836;SHT30;52595;51.608;7.216;2022-10-22T16:09:57;15.95;81.13
65836;SHT30;52595;51.608;7.216;2022-10-22T16:12:24;15.72;81.87
65836;SHT30;52595;51.608;7.216;2022-10-22T16:14:50;15.61;82.23
65836;SHT30;52595;51.608;7.216;2022-10-22T16:17:16;15.45;82.69
65836;SHT30;52595;51.608;7.216;2022-10-22T16:19:41;15.39;82.97
65836;SHT30;52595;51.608;7.216;2022-10-22T16:22:08;15.24;83.63
65836;SHT30;52595;51.608;7.216;2022-10-22T16:24:36;15.17;83.87
65836;SHT30;52595;51.608;7.216;2022-10-22T16:27:04;15.11;84.19
65836;SHT30;52595;51.608;7.216;2022-10-22T16:29:30;15.14;83.92
65836;SHT30;52595;51.608;7.216;2022-10-22T16:31:55;15.08;84.22
65836;SHT30;52595;51.608;7.216;2022-10-22T16:34:21;14.95;84.47
65836;SHT30;52595;51.608;7.216;2022-10-22T16:36:46;14.88;84.78
65836;SHT30;52595;51.608;7.216;2022-10-22T16:39:13;14.81;85.20
65836;SHT30;52595;51.608;7.216;2022-10-22T16:41:38;14.73;85.43
65836;SHT30;52595;51.608;7.216;2022-10-22T16:44:05;14.60;85.76
65836;SHT30;52595;51.608;7.216;2022-10-22T16:46:32;14.34;86.69
65836;SHT30;52595;51.608;7.216;2022-10-22T16:49:00;14.19;87.59
65836;SHT30;52595;51.608;7.216;2022-10-22T16:51:26;14.06;88.22
65836;SHT30;52595;51.608;7.216;2022-10-22T16:53:54;13.90;89.01
65836;SHT30;52595;51.608;7.216;2022-10-22T16:56:20;13.67;89.46